createdAt,value
2022-10-28T00:01:15.309Z,2.03
2022-10-28T00:03:45.125Z,2.00
2022-10-28T00:06:18.435Z,1.90
2022-10-28T00:08:46.916Z,2.17
2022-10-28T00:11:24.547Z,1.60
2022-10-28T00:13:55.241Z,2.07
2022-10-28T00:16:25.373Z,1.70
2022-10-28T00:18:54.119Z,1.80
2022-10-28T00:21:27.691Z,2.30
2022-10-28T00:23:55.525Z,2.10
2022-10-28T00:26:27.654Z,1.80
2022-10-28T00:28:58.942Z,1.80
2022-10-28T00:31:28.373Z,2.53
2022-10-28T00:33:55.230Z,2.20
2022-10-28T00:36:27.171Z,1.83
2022-10-28T00:38:55.571Z,2.13
2022-10-28T00:41:25.340Z,2.17
2022-10-28T00:43:55.078Z,1.80
2022-10-28T00:46:42.470Z,2.40
2022-10-28T00:49:30.413Z,2.07
2022-10-28T00:52:02.611Z,2.20
2022-10-28T00:54:30.848Z,1.80
2022-10-28T00:57:00.675Z,1.93
2022-10-28T00:59:33.920Z,1.90
2022-10-28T01:02:01.343Z,1.77
2022-10-28T01:04:28.520Z,1.90
2022-10-28T01:06:57.376Z,1.80
2022-10-28T01:11:52.008Z,2.03
2022-10-28T01:14:18.742Z,1.87
2022-10-28T01:17:18.513Z,1.90
2022-10-28T01:20:00.245Z,1.83
2022-10-28T01:25:19.134Z,2.20
2022-10-28T01:28:18.792Z,2.33
2022-10-28T01:31:13.279Z,1.63
2022-10-28T01:34:07.888Z,1.87
2022-10-28T01:36:54.830Z,1.90
2022-10-28T01:39:33.608Z,2.00
2022-10-28T01:42:15.738Z,1.97
2022-10-28T01:44:55.622Z,1.97
2022-10-28T01:47:30.268Z,1.73
2022-10-28T01:50:07.840Z,1.63
2022-10-28T01:52:35.195Z,1.63
2022-10-28T01:55:11.963Z,2.07
2022-10-28T01:57:40.761Z,1.73
2022-10-28T02:00:08.598Z,1.90
2022-10-28T02:02:38.238Z,2.20
2022-10-28T02:05:39.482Z,1.77
2022-10-28T02:08:29.147Z,2.30
2022-10-28T02:11:02.158Z,2.00
2022-10-28T02:13:49.114Z,1.67
2022-10-28T02:16:42.170Z,1.70
2022-10-28T02:19:17.828Z,1.70
2022-10-28T02:22:04.184Z,1.60
2022-10-28T02:24:53.923Z,1.63
2022-10-28T02:27:29.594Z,1.70
2022-10-28T02:30:05.221Z,2.00
2022-10-28T02:32:38.474Z,1.60
2022-10-28T02:35:11.967Z,2.20
2022-10-28T02:37:42.194Z,1.90
2022-10-28T02:40:16.238Z,2.00
2022-10-28T02:43:03.847Z,1.50
2022-10-28T02:45:47.017Z,1.60
2022-10-28T02:48:22.114Z,1.70
2022-10-28T02:51:00.593Z,2.37
2022-10-28T02:53:33.152Z,1.60
2022-10-28T02:56:02.560Z,2.10
2022-10-28T02:58:29.754Z,1.70
2022-10-28T03:00:56.500Z,2.00
2022-10-28T03:03:23.605Z,1.63
2022-10-28T03:05:50.327Z,1.90
2022-10-28T03:08:20.150Z,1.60
2022-10-28T03:10:46.844Z,1.97
2022-10-28T03:13:13.536Z,1.73
2022-10-28T03:15:40.222Z,1.90
2022-10-28T03:18:06.907Z,2.07
2022-10-28T03:20:33.647Z,1.73
2022-10-28T03:23:00.473Z,1.80
2022-10-28T03:25:27.172Z,1.93
2022-10-28T03:27:53.885Z,1.60
2022-10-28T03:30:20.697Z,1.80
2022-10-28T03:32:47.381Z,1.70
2022-10-28T03:35:14.152Z,2.07
2022-10-28T03:37:44.582Z,1.60
2022-10-28T03:40:12.155Z,1.90
2022-10-28T03:42:41.548Z,2.00
2022-10-28T03:45:09.719Z,2.27
2022-10-28T03:47:37.475Z,1.73
2022-10-28T03:50:04.769Z,2.00
2022-10-28T03:52:31.794Z,2.00
2022-10-28T03:55:00.809Z,2.27
2022-10-28T03:57:31.796Z,2.17
2022-10-28T03:59:58.660Z,2.00
2022-10-28T04:02:26.642Z,1.80
2022-10-28T04:04:53.879Z,1.67
2022-10-28T04:07:21.210Z,2.00
2022-10-28T04:09:51.788Z,2.10
2022-10-28T04:12:19.122Z,1.80
2022-10-28T04:14:46.041Z,1.97
2022-10-28T04:17:13.173Z,2.10
2022-10-28T04:19:40.246Z,1.70
2022-10-28T04:22:08.082Z,1.90
2022-10-28T04:24:34.925Z,1.90
2022-10-28T04:27:01.639Z,1.90
2022-10-28T04:29:28.871Z,1.70
2022-10-28T04:31:55.651Z,1.97
2022-10-28T04:40:03.907Z,1.70
2022-10-28T04:44:55.998Z,1.90
2022-10-28T04:47:22.727Z,1.90
2022-10-28T04:49:49.817Z,1.83
2022-10-28T04:52:16.592Z,2.20
2022-10-28T04:55:02.630Z,2.40
2022-10-28T04:57:29.683Z,1.93
2022-10-28T05:00:04.039Z,2.03
2022-10-28T05:02:33.837Z,1.60
2022-10-28T05:05:03.453Z,1.93
2022-10-28T05:07:51.777Z,1.80
2022-10-28T05:10:19.328Z,1.60
2022-10-28T05:12:46.425Z,1.90
2022-10-28T05:15:20.429Z,1.80
2022-10-28T05:17:51.420Z,1.80
2022-10-28T05:20:19.897Z,1.77
2022-10-28T05:22:50.743Z,1.80
2022-10-28T05:25:18.320Z,1.83
2022-10-28T05:27:45.247Z,2.00
2022-10-28T05:30:12.954Z,1.87
2022-10-28T05:32:40.092Z,2.27
2022-10-28T05:35:18.955Z,2.60
2022-10-28T05:37:45.977Z,2.17
2022-10-28T05:40:14.518Z,2.30
2022-10-28T05:42:44.483Z,2.73
2022-10-28T05:45:14.968Z,2.13
2022-10-28T05:47:46.189Z,2.03
2022-10-28T05:50:15.071Z,1.70
2022-10-28T05:52:52.823Z,2.00
2022-10-28T05:55:21.621Z,1.90
2022-10-28T05:57:53.094Z,1.47
2022-10-28T06:00:23.447Z,1.60
2022-10-28T06:02:50.765Z,2.00
2022-10-28T06:05:18.075Z,1.70
2022-10-28T06:08:01.009Z,1.60
2022-10-28T06:10:28.344Z,1.70
2022-10-28T06:12:55.029Z,1.80
2022-10-28T06:15:22.726Z,1.70
2022-10-28T06:18:01.900Z,1.97
2022-10-28T06:20:28.901Z,1.97
2022-10-28T06:22:58.522Z,1.60
2022-10-28T06:25:25.694Z,1.40
2022-10-28T06:27:58.401Z,1.57
2022-10-28T06:30:26.005Z,1.70
2022-10-28T06:32:55.969Z,1.53
2022-10-28T06:35:23.162Z,1.77
2022-10-28T06:38:19.171Z,1.60
2022-10-28T06:41:25.319Z,1.70
2022-10-28T07:02:40.133Z,2.90
2022-10-28T07:05:08.509Z,2.40
2022-10-28T07:07:37.276Z,2.60
2022-10-28T07:10:07.261Z,2.10
2022-10-28T07:12:34.103Z,2.10
2022-10-28T07:15:00.793Z,2.50
2022-10-28T07:17:27.449Z,3.63
2022-10-28T07:19:54.134Z,6.27
2022-10-28T07:22:25.318Z,4.67
2022-10-28T07:24:52.405Z,2.93
2022-10-28T07:27:19.063Z,1.80
2022-10-28T07:29:45.756Z,1.43
2022-10-28T07:32:12.537Z,1.60
2022-10-28T07:34:39.205Z,1.63
2022-10-28T07:37:06.148Z,1.60
2022-10-28T07:39:33.023Z,2.13
2022-10-28T07:42:01.373Z,2.50
2022-10-28T07:44:28.838Z,2.20
2022-10-28T07:46:58.018Z,2.20
2022-10-28T07:49:25.254Z,1.93
2022-10-28T07:51:52.003Z,2.40
2022-10-28T07:54:18.687Z,1.67
2022-10-28T07:56:45.377Z,1.90
2022-10-28T07:59:12.056Z,2.10
2022-10-28T08:01:38.909Z,1.70
2022-10-28T08:04:05.709Z,1.50
2022-10-28T08:06:34.671Z,1.93
2022-10-28T08:09:01.740Z,1.93
2022-10-28T08:11:28.470Z,2.00
2022-10-28T08:13:55.869Z,2.10
2022-10-28T08:16:22.889Z,2.03
2022-10-28T08:18:49.572Z,2.00
2022-10-28T08:21:16.707Z,2.10
2022-10-28T08:23:46.877Z,1.80
2022-10-28T08:26:15.248Z,1.90
2022-10-28T08:28:42.561Z,2.00
2022-10-28T08:31:10.130Z,1.57
2022-10-28T08:33:39.350Z,1.60
2022-10-28T08:36:28.980Z,1.60
2022-10-28T09:33:45.432Z,1.20
2022-10-28T09:36:17.014Z,1.40
2022-10-28T09:38:44.828Z,1.60
2022-10-28T09:41:22.621Z,1.20
2022-10-28T09:44:11.755Z,1.40
2022-10-28T09:46:39.993Z,1.33
2022-10-28T09:49:15.403Z,1.40
2022-10-28T09:51:52.136Z,1.40
2022-10-28T09:54:27.592Z,1.30
2022-10-28T09:56:54.889Z,1.37
2022-10-28T09:59:21.597Z,1.50
2022-10-28T10:01:48.409Z,1.40
2022-10-28T10:04:21.973Z,1.90
2022-10-28T10:06:56.887Z,1.47
2022-10-28T10:09:27.313Z,1.50
2022-10-28T10:12:02.698Z,1.50
2022-10-28T10:14:35.682Z,1.87
2022-10-28T10:17:35.943Z,2.00
2022-10-28T10:20:12.494Z,1.80
2022-10-28T10:22:41.832Z,2.37
2022-10-28T10:25:20.522Z,1.63
2022-10-28T10:28:02.161Z,1.20
2022-10-28T10:30:30.409Z,1.10
2022-10-28T10:32:58.363Z,1.30
2022-10-28T10:35:33.241Z,1.10
2022-10-28T10:38:02.106Z,1.10
2022-10-28T10:40:33.522Z,1.52
2022-10-28T10:43:15.790Z,1.77
2022-10-28T10:45:49.056Z,1.40
2022-10-28T10:48:16.182Z,1.30
2022-10-28T10:50:44.598Z,1.52
2022-10-28T10:53:21.385Z,1.40
2022-10-28T10:55:55.605Z,1.30
2022-10-28T10:58:26.459Z,1.20
2022-10-28T11:00:55.843Z,1.30
2022-10-28T11:03:47.570Z,1.10
2022-10-28T11:06:24.537Z,1.27
2022-10-28T11:09:16.486Z,1.63
2022-10-28T11:11:43.216Z,1.30
2022-10-28T11:14:09.821Z,1.30
2022-10-28T11:16:52.577Z,1.58
2022-10-28T11:19:23.858Z,1.27
2022-10-28T11:22:18.277Z,1.40
2022-10-28T11:25:10.628Z,1.40
2022-10-28T11:28:03.113Z,1.08
2022-10-28T11:31:03.026Z,1.10
2022-10-28T11:33:47.451Z,1.15
2022-10-28T11:36:25.041Z,1.25
2022-10-28T11:38:52.420Z,0.95
2022-10-28T11:41:48.758Z,1.50
2022-10-28T11:44:42.183Z,1.20
2022-10-28T11:47:57.366Z,1.50
2022-10-28T11:50:24.326Z,1.45
2022-10-28T11:53:15.315Z,1.50
2022-10-28T11:55:53.758Z,1.40
2022-10-28T11:58:43.597Z,1.13
2022-10-28T12:01:25.385Z,1.17
2022-10-28T12:04:29.554Z,1.27
2022-10-28T12:07:14.231Z,1.55
2022-10-28T12:10:09.434Z,1.30
2022-10-28T12:12:52.419Z,1.30
2022-10-28T12:15:34.173Z,1.45
2022-10-28T12:18:29.726Z,1.17
2022-10-28T12:21:07.455Z,1.10
2022-10-28T12:23:37.738Z,1.20
2022-10-28T12:26:10.115Z,1.20
2022-10-28T12:28:36.727Z,1.25
2022-10-28T12:31:07.185Z,1.15
2022-10-28T12:33:39.308Z,1.40
2022-10-28T12:36:09.119Z,1.33
2022-10-28T12:38:57.541Z,1.30
2022-10-28T12:41:27.576Z,1.60
2022-10-28T12:44:16.017Z,1.10
2022-10-28T12:46:52.536Z,1.30
2022-10-28T12:49:38.681Z,1.35
2022-10-28T12:52:47.475Z,1.30
2022-10-28T12:57:45.741Z,1.30
2022-10-28T13:00:15.893Z,1.20
2022-10-28T13:03:07.944Z,1.42
2022-10-28T13:05:57.715Z,1.40
2022-10-28T13:08:59.221Z,1.33
2022-10-28T13:11:58.178Z,1.40
2022-10-28T13:14:50.694Z,1.52
2022-10-28T13:17:55.012Z,1.88
2022-10-28T13:20:58.684Z,1.35
2022-10-28T13:24:01.322Z,1.70
2022-10-28T13:26:30.975Z,1.30
2022-10-28T13:29:00.794Z,1.80
2022-10-28T13:31:46.103Z,1.65
2022-10-28T13:34:18.448Z,1.30
2022-10-28T13:36:58.007Z,1.33
2022-10-28T13:39:29.630Z,1.83
2022-10-28T13:42:23.392Z,1.38
2022-10-28T13:45:06.527Z,1.55
2022-10-28T13:47:37.732Z,1.70
2022-10-28T13:50:10.871Z,2.20
2022-10-28T13:52:43.076Z,1.85
2022-10-28T13:55:48.364Z,1.85
2022-10-28T13:58:26.445Z,1.80
2022-10-28T14:00:54.770Z,1.70
2022-10-28T14:03:23.343Z,1.60
2022-10-28T14:05:57.315Z,1.60
2022-10-28T14:08:34.234Z,1.45
2022-10-28T14:11:07.798Z,1.60
2022-10-28T14:13:49.269Z,1.40
2022-10-28T14:16:24.283Z,1.30
2022-10-28T14:19:05.971Z,1.60
2022-10-28T14:22:03.883Z,1.73
2022-10-28T14:24:42.399Z,2.25
2022-10-28T14:27:09.293Z,1.50
2022-10-28T14:29:54.752Z,1.20
2022-10-28T14:32:33.703Z,1.70
2022-10-28T14:35:25.356Z,1.67
2022-10-28T14:38:12.310Z,2.30
2022-10-28T14:40:46.586Z,1.55
2022-10-28T14:43:23.911Z,1.50
2022-10-28T14:46:18.780Z,1.70
2022-10-28T14:48:57.370Z,1.77
2022-10-28T14:51:26.789Z,2.22
2022-10-28T14:53:59.588Z,2.05
2022-10-28T14:56:29.158Z,1.90
2022-10-28T14:59:04.968Z,1.58
2022-10-28T15:02:17.856Z,1.63
2022-10-28T15:04:47.221Z,1.60
2022-10-28T15:07:17.381Z,2.00
2022-10-28T15:09:47.370Z,1.90
2022-10-28T15:12:17.144Z,1.65
2022-10-28T15:14:52.786Z,2.03
2022-10-28T15:17:21.381Z,2.20
2022-10-28T15:19:50.636Z,3.85
2022-10-28T15:22:33.107Z,3.92
2022-10-28T15:25:05.935Z,2.83
2022-10-28T15:27:35.440Z,2.10
2022-10-28T15:30:04.144Z,3.92
2022-10-28T15:32:33.856Z,2.95
2022-10-28T15:35:29.877Z,2.22
2022-10-28T15:38:01.400Z,6.35
2022-10-28T15:40:31.139Z,8.10
2022-10-28T15:43:03.259Z,5.95
2022-10-28T15:45:37.117Z,4.15
2022-10-28T15:48:13.455Z,3.30
2022-10-28T15:50:40.682Z,3.53
2022-10-28T15:53:07.332Z,2.35
2022-10-28T15:55:41.293Z,2.33
2022-10-28T15:58:31.539Z,4.63
2022-10-28T16:00:58.969Z,6.53
2022-10-28T16:03:40.648Z,3.90
2022-10-28T16:06:22.461Z,2.90
2022-10-28T16:09:15.906Z,3.13
2022-10-28T16:11:56.631Z,3.43
2022-10-28T16:14:39.673Z,3.97
2022-10-28T16:17:36.279Z,3.80
2022-10-28T16:20:18.343Z,2.20
2022-10-28T16:22:47.191Z,2.60
2022-10-28T16:25:22.081Z,2.73
2022-10-28T16:27:51.064Z,2.70
2022-10-28T16:30:18.144Z,2.30
2022-10-28T16:32:49.775Z,4.07
2022-10-28T16:35:22.684Z,5.90
2022-10-28T16:37:56.554Z,4.20
2022-10-28T16:46:28.197Z,2.30
2022-10-28T16:48:55.380Z,2.53
2022-10-28T16:51:22.413Z,2.43
2022-10-28T16:53:50.941Z,3.77
2022-10-28T16:56:38.122Z,4.37
2022-10-28T16:59:05.257Z,10.33
2022-10-28T17:01:32.293Z,9.63
2022-10-28T17:03:59.300Z,8.03
2022-10-28T17:06:26.742Z,3.53
2022-10-28T17:09:08.986Z,4.03
2022-10-28T17:11:35.883Z,2.80
2022-10-28T17:14:02.714Z,2.33
2022-10-28T17:16:29.695Z,3.90
2022-10-28T17:19:16.824Z,3.20
2022-10-28T17:21:44.218Z,2.60
2022-10-28T17:24:12.336Z,2.63
2022-10-28T17:26:59.191Z,2.30
2022-10-28T17:29:27.939Z,2.30
2022-10-28T17:31:55.404Z,2.50
2022-10-28T17:34:22.334Z,2.43
2022-10-28T17:41:02.854Z,2.20
2022-10-28T17:43:30.093Z,2.27
2022-10-28T17:46:05.029Z,2.43
2022-10-28T17:48:32.338Z,2.10
2022-10-28T17:54:59.800Z,2.30
2022-10-28T17:57:26.599Z,2.20
2022-10-28T18:02:34.652Z,2.13
2022-10-28T18:05:58.723Z,2.53
2022-10-28T18:08:47.756Z,2.00
2022-10-28T18:11:20.566Z,1.93
2022-10-28T18:13:49.947Z,2.40
2022-10-28T18:16:22.720Z,2.10
2022-10-28T18:19:47.315Z,2.37
2022-10-28T18:22:43.252Z,2.20
2022-10-28T20:37:54.201Z,2.60
2022-10-28T20:40:27.444Z,2.33
2022-10-28T20:42:55.802Z,2.37
2022-10-28T20:45:23.221Z,2.80
2022-10-28T20:48:08.309Z,2.60
2022-10-28T20:50:35.142Z,2.60
2022-10-28T20:53:02.505Z,2.67
2022-10-28T20:55:29.410Z,2.43
2022-10-28T20:57:56.921Z,2.53
2022-10-28T21:00:23.869Z,2.40
2022-10-28T21:02:58.401Z,2.50
2022-10-28T21:05:26.884Z,2.60
2022-10-28T21:08:03.786Z,2.43
2022-10-28T21:10:30.792Z,2.57
2022-10-28T21:12:57.621Z,2.67
2022-10-28T21:15:25.120Z,2.87
2022-10-28T21:17:52.636Z,3.03
2022-10-28T21:20:21.933Z,2.70
2022-10-28T21:22:49.108Z,2.90
2022-10-28T21:25:16.855Z,2.87
2022-10-28T21:27:45.436Z,2.80
2022-10-28T21:30:12.954Z,2.50
2022-10-28T21:32:40.465Z,2.87
2022-10-28T21:35:07.603Z,2.43
2022-10-28T21:37:35.201Z,2.33
2022-10-28T21:40:02.532Z,2.70
2022-10-28T21:42:29.577Z,2.57
2022-10-28T21:44:56.836Z,2.60
2022-10-28T21:47:24.044Z,2.43
2022-10-28T21:49:51.560Z,2.33
2022-10-28T21:52:18.775Z,2.40
2022-10-28T21:54:52.932Z,3.47
2022-10-28T21:57:21.964Z,2.80
2022-10-28T21:59:49.946Z,2.90
2022-10-28T22:02:17.614Z,2.63
2022-10-28T22:04:46.823Z,2.70
2022-10-28T22:07:13.624Z,2.30
2022-10-28T22:09:40.345Z,2.80
2022-10-28T22:12:07.506Z,3.40
2022-10-28T22:14:34.249Z,2.60
2022-10-28T22:17:01.003Z,2.93
2022-10-28T22:19:27.740Z,2.87
2022-10-28T22:21:54.491Z,3.20
2022-10-28T22:24:21.219Z,2.63
2022-10-28T22:26:47.928Z,2.63
2022-10-28T22:29:14.652Z,3.23
2022-10-28T22:31:41.334Z,2.80
2022-10-28T22:34:08.011Z,3.13
2022-10-28T22:36:34.793Z,3.13
2022-10-28T22:39:01.517Z,2.60
2022-10-28T22:41:30.096Z,2.43
2022-10-28T22:44:01.271Z,3.10
2022-10-28T22:46:30.139Z,2.77
2022-10-28T22:48:57.070Z,2.90
2022-10-28T22:51:24.305Z,2.70
2022-10-28T22:53:51.426Z,2.57
2022-10-28T22:56:22.763Z,2.87
2022-10-28T22:58:56.580Z,2.90
2022-10-28T23:01:24.701Z,2.53
2022-10-28T23:03:53.141Z,2.77
2022-10-28T23:06:22.553Z,2.83
2022-10-28T23:08:50.463Z,2.70
2022-10-28T23:11:19.061Z,2.57
2022-10-28T23:13:46.041Z,2.40
2022-10-28T23:16:15.799Z,2.80
2022-10-28T23:18:43.597Z,3.40
2022-10-28T23:21:15.819Z,2.97
2022-10-28T23:23:43.012Z,2.73
2022-10-28T23:26:10.942Z,3.23
2022-10-28T23:28:37.681Z,2.80
2022-10-28T23:31:05.927Z,2.53
2022-10-28T23:33:34.553Z,2.87
2022-10-28T23:36:03.758Z,2.53
2022-10-28T23:38:31.460Z,2.30
2022-10-28T23:41:00.848Z,3.23
2022-10-28T23:43:28.529Z,2.73
2022-10-28T23:45:55.930Z,2.77
2022-10-28T23:48:23.891Z,2.83
2022-10-28T23:50:51.142Z,2.60
2022-10-28T23:53:18.735Z,2.50
2022-10-28T23:55:47.524Z,2.93
2022-10-28T23:58:15.658Z,2.83
